GOPTI EGCW-EGBS

Flight info

Callsign GOPTI
Flight time 0h 25m
Altitude 3500
Route VFR
Aircraft P28A/L-SDFG/C

Departure

Time 2026-05-01 08:30
Airport Welshpool Airport (EGCW)

Arrival

Time 2026-05-01 08:55
Airport Shobdon Airfield (EGBS)
Time Latitude Longitude Altitude Speed Heading
2026-05-01 08:20 52.63144 -3.15177 247 ft 0 kts 71°
2026-05-01 08:28 52.63144 -3.15141 244 ft 7 kts 93°
2026-05-01 08:29 52.63184 -3.15035 245 ft 13 kts 47°
2026-05-01 08:29 52.63245 -3.14960 244 ft 3 kts 68°
2026-05-01 08:29 52.63216 -3.14926 243 ft 10 kts 181°
2026-05-01 08:29 52.63085 -3.15071 246 ft 45 kts 215°
2026-05-01 08:30 52.62716 -3.15500 295 ft 76 kts 213°
2026-05-01 08:30 52.62275 -3.16011 464 ft 77 kts 213°
2026-05-01 08:30 52.61851 -3.16485 686 ft 73 kts 212°
2026-05-01 08:30 52.61416 -3.16951 842 ft 76 kts 210°
2026-05-01 08:31 52.60974 -3.17384 1049 ft 73 kts 204°
2026-05-01 08:31 52.60481 -3.17483 1225 ft 74 kts 170°
2026-05-01 08:31 52.59993 -3.17220 1392 ft 76 kts 154°
2026-05-01 08:31 52.59529 -3.16819 1611 ft 77 kts 149°
2026-05-01 08:32 52.59100 -3.16286 1848 ft 78 kts 143°
2026-05-01 08:32 52.58668 -3.15765 2077 ft 78 kts 153°
2026-05-01 08:32 52.58191 -3.15346 2284 ft 78 kts 152°
2026-05-01 08:32 52.57711 -3.14939 2473 ft 79 kts 155°
2026-05-01 08:33 52.57225 -3.14534 2680 ft 76 kts 156°
2026-05-01 08:33 52.56798 -3.14149 2945 ft 69 kts 155°
2026-05-01 08:33 52.56392 -3.13760 3138 ft 68 kts 154°
2026-05-01 08:33 52.56004 -3.13365 3331 ft 67 kts 154°
2026-05-01 08:34 52.55601 -3.12920 3491 ft 73 kts 151°
2026-05-01 08:34 52.55166 -3.12529 3601 ft 67 kts 158°
2026-05-01 08:34 52.54777 -3.12160 3658 ft 67 kts 155°
2026-05-01 08:34 52.54381 -3.11744 3641 ft 66 kts 154°
2026-05-01 08:35 52.53967 -3.11313 3605 ft 73 kts 154°
2026-05-01 08:35 52.53547 -3.10825 3635 ft 74 kts 151°
2026-05-01 08:35 52.53125 -3.10329 3674 ft 74 kts 150°
2026-05-01 08:35 52.52697 -3.09877 3685 ft 75 kts 156°
2026-05-01 08:36 52.52256 -3.09436 3709 ft 74 kts 156°
2026-05-01 08:36 52.51800 -3.09017 3715 ft 77 kts 157°
2026-05-01 08:36 52.51308 -3.08577 3726 ft 81 kts 158°
2026-05-01 08:36 52.50821 -3.08116 3755 ft 80 kts 157°
2026-05-01 08:37 52.50321 -3.07692 3693 ft 87 kts 158°
2026-05-01 08:37 52.49832 -3.07235 3771 ft 78 kts 155°
2026-05-01 08:37 52.49354 -3.06765 3784 ft 81 kts 155°
2026-05-01 08:37 52.48832 -3.06403 3705 ft 84 kts 162°
2026-05-01 08:38 52.48407 -3.06037 3640 ft 87 kts 157°
2026-05-01 08:38 52.48047 -3.05736 3604 ft 89 kts 159°
2026-05-01 08:38 52.47502 -3.05302 3597 ft 88 kts 159°
2026-05-01 08:39 52.46957 -3.04879 3636 ft 80 kts 158°
2026-05-01 08:39 52.46553 -3.04509 3746 ft 72 kts 155°
2026-05-01 08:39 52.46117 -3.04054 3734 ft 73 kts 153°
2026-05-01 08:39 52.45712 -3.03590 3633 ft 71 kts 151°
2026-05-01 08:40 52.44901 -3.02729 3456 ft 69 kts 155°
2026-05-01 08:40 52.44486 -3.02297 3430 ft 74 kts 153°
2026-05-01 08:40 52.44057 -3.01865 3433 ft 76 kts 156°
2026-05-01 08:41 52.43574 -3.01447 3442 ft 80 kts 157°
2026-05-01 08:41 52.43078 -3.01006 3395 ft 86 kts 156°
2026-05-01 08:41 52.42553 -3.00546 3395 ft 86 kts 157°
2026-05-01 08:41 52.42027 -3.00097 3386 ft 86 kts 156°
2026-05-01 08:42 52.41495 -2.99625 3281 ft 89 kts 158°
2026-05-01 08:42 52.40927 -2.99170 3192 ft 91 kts 160°
2026-05-01 08:42 52.40359 -2.98723 3158 ft 89 kts 158°
2026-05-01 08:42 52.39800 -2.98280 3156 ft 89 kts 158°
2026-05-01 08:43 52.39253 -2.97841 3159 ft 87 kts 158°
2026-05-01 08:43 52.38715 -2.97411 3163 ft 85 kts 158°
2026-05-01 08:43 52.38194 -2.96963 3156 ft 86 kts 156°
2026-05-01 08:43 52.37687 -2.96511 3079 ft 82 kts 156°
2026-05-01 08:44 52.37197 -2.96066 2975 ft 79 kts 156°
2026-05-01 08:44 52.36733 -2.95656 2907 ft 74 kts 158°
2026-05-01 08:44 52.36264 -2.95335 2850 ft 72 kts 162°
2026-05-01 08:44 52.35801 -2.95037 2762 ft 71 kts 163°
2026-05-01 08:45 52.35341 -2.94760 2691 ft 69 kts 165°
2026-05-01 08:45 52.34879 -2.94515 2614 ft 75 kts 166°
2026-05-01 08:45 52.34352 -2.94268 2540 ft 80 kts 170°
2026-05-01 08:45 52.33789 -2.94037 2489 ft 87 kts 168°
2026-05-01 08:46 52.33200 -2.93777 2428 ft 87 kts 167°
2026-05-01 08:46 52.32621 -2.93504 2477 ft 88 kts 166°
2026-05-01 08:46 52.32035 -2.93203 2608 ft 88 kts 163°
2026-05-01 08:46 52.31444 -2.92926 2724 ft 90 kts 169°
2026-05-01 08:47 52.30846 -2.92624 2837 ft 88 kts 165°
2026-05-01 08:47 52.30277 -2.92232 2854 ft 89 kts 160°
2026-05-01 08:47 52.29698 -2.91832 2829 ft 89 kts 160°
2026-05-01 08:47 52.29138 -2.91423 2740 ft 85 kts 161°
2026-05-01 08:48 52.28570 -2.91109 2592 ft 83 kts 168°
2026-05-01 08:48 52.28029 -2.90870 2477 ft 79 kts 166°
2026-05-01 08:48 52.27504 -2.90584 2321 ft 80 kts 163°
2026-05-01 08:48 52.26967 -2.90257 2296 ft 84 kts 160°
2026-05-01 08:49 52.26430 -2.89874 2297 ft 87 kts 159°
2026-05-01 08:49 52.25912 -2.89471 2183 ft 80 kts 157°
2026-05-01 08:49 52.25399 -2.89174 2029 ft 77 kts 165°
2026-05-01 08:49 52.24900 -2.88928 1920 ft 75 kts 165°
2026-05-01 08:50 52.24393 -2.88684 1762 ft 77 kts 158°
2026-05-01 08:50 52.24266 -2.88566 1730 ft 77 kts 150°
2026-05-01 08:51 52.24052 -2.88335 1667 ft 77 kts 149°
2026-05-01 08:51 52.23603 -2.87872 1488 ft 75 kts 150°
2026-05-01 08:51 52.23143 -2.87440 1342 ft 83 kts 153°
2026-05-01 08:52 52.22606 -2.87113 1298 ft 80 kts 167°
2026-05-01 08:52 52.22061 -2.87167 1281 ft 79 kts 203°
2026-05-01 08:52 52.21665 -2.87803 1261 ft 83 kts 236°
2026-05-01 08:52 52.21415 -2.88653 1229 ft 84 kts 243°
2026-05-01 08:53 52.21213 -2.89545 1200 ft 86 kts 251°
2026-05-01 08:53 52.21123 -2.90481 1150 ft 84 kts 275°
2026-05-01 08:53 52.21446 -2.91218 1096 ft 82 kts 335°
2026-05-01 08:53 52.22001 -2.91458 1030 ft 85 kts 350°
2026-05-01 08:54 52.22536 -2.91556 955 ft 73 kts 355°
2026-05-01 08:54 52.23053 -2.91564 876 ft 74 kts
2026-05-01 08:54 52.23568 -2.91486 785 ft 73 kts 26°
2026-05-01 08:54 52.23895 -2.90886 659 ft 71 kts 71°
2026-05-01 08:55 52.24014 -2.90094 543 ft 72 kts 81°
2026-05-01 08:55 52.24077 -2.89306 403 ft 69 kts 84°
2026-05-01 08:55 52.24133 -2.88551 319 ft 61 kts 84°
2026-05-01 08:55 52.24155 -2.88260 316 ft 0 kts 82°
2026-05-01 08:56 52.24161 -2.88178 315 ft 16 kts 83°
2026-05-01 08:56 52.24199 -2.88028 316 ft 11 kts 327°
2026-05-01 08:56 52.24279 -2.88094 315 ft 10 kts 336°
2026-05-01 08:56 52.24298 -2.88183 316 ft 17 kts 264°
2026-05-01 08:57 52.24269 -2.88264 317 ft 0 kts 172°